Sweeney Granite Mountains, California Weather observations

Data are for 10 minute period ending at time listed.
 Day   Time   Solar   Ave.   Ave.  Ave.  Vector  Max.   Baro.   Total    
  of    of     Rad.   Air    Rel.  Wind   Wind   Wind  Press.  Precip.   
Year   Day            Temp.  Hum.  Speed  Dir.   Gust                    
2014   (PST)  Kw/m2    F      %     mph   deg.    mph    mb.     in.     
-------------------------------------------------------------------------
 212   14:10   0.71   95.1    14    7.5   268    15.6   870.8    0.00 
 212   14:20   0.76   95.5    14    5.9   275    12.3   870.7    0.00 
 212   14:30   0.72   96.4    14    7.3   269    15.6   870.6    0.00 
 212   14:40   0.73   95.7    14    8.4   289    14.5   870.6    0.00 
 212   14:50   0.70   95.2    14    6.0   290    11.2   870.5    0.00 
 212   15:00   0.73   95.5    14    4.6   177    10.0   870.4    0.00 
 212   15:10   0.55   95.6    14    3.9   244     7.9   870.2    0.00 
 212   15:20   0.58   95.5    14    4.0   244    11.4   870.1    0.00 
 212   15:30   0.56   95.0    15    8.8   282    15.6   870.1    0.00 
 212   15:40   0.43   94.4    15    8.0   290    13.9   870.1    0.00 
 212   15:50   0.47   94.9    15    3.5   242     9.5   870.1    0.00 
 212   16:00   0.54   94.9    15    3.5   109     9.3   870.0    0.00 
 212   16:10   0.56   95.3    15    6.1   199    17.4   869.9    0.00 
 212   16:20   0.48   95.5    15    5.6   234    15.4   869.8    0.00 
 212   16:30   0.35   94.4    15    7.1   226    16.7   869.7    0.00 
 212   16:40   0.37   94.4    15    8.8   267    18.1   869.7    0.00 
 212   16:50   0.25   93.7    15    7.5   265    14.9   869.7    0.00 
 212   17:00   0.26   93.6    15    7.0   260    13.2   869.6    0.00 
 212   17:10   0.26   93.8    15    7.5   274    13.1   869.6    0.00 
 212   17:20   0.23   94.3    15    5.4   278    10.7   869.6    0.00 
 212   17:30   0.10   93.1    16    2.7   281     7.2   869.6    0.00 
 212   17:40   0.11   92.9    16    2.8   266     8.2   869.7    0.00 
 212   17:50   0.08   92.2    16    6.0   100    14.8   869.7    0.00 
 212   18:00   0.07   91.6    17    5.8   205    10.2   869.8    0.00 
 212   18:10   0.06   91.5    17    4.2   234     8.9   869.8    0.00 
 212   18:20   0.05   91.5    17    4.6   222     9.5   869.9    0.00 
 212   18:30   0.04   91.0    18    2.7   210    10.5   870.0    0.00 
 212   18:40   0.02   90.5    18    1.7   106     4.7   870.0    0.00 
 212   18:50   0.00   89.7    18    2.5    89     5.0   870.1    0.00 
 212   19:00   0.00   89.2    19    1.6    79     3.2   870.2    0.00 
 212   19:10   0.00   88.9    19    1.2    65     2.7   870.2    0.00 
 212   19:20   0.00   88.4    19    1.8    94     2.6   870.3    0.00 
 212   19:30   0.00   87.9    20    1.8    84     3.0   870.4    0.00 
 212   19:40   0.00   87.0    20    1.8    88     2.5   870.4    0.00 
 212   19:50   0.00   86.8    20    3.7   112     7.5   870.5    0.00 
 212   20:00   0.00   87.6    20    4.9   117     8.0   870.7    0.00 
 212   20:10   0.00   87.2    20    2.6   104     5.3   870.9    0.00 
 212   20:20   0.00   87.5    20    1.7    86     2.7   870.9    0.00 
 212   20:30   0.00   87.3    21    1.8   100     3.4   871.0    0.00 
 212   20:40   0.00   87.3    21    2.1   115     4.1   871.0    0.00 
 212   20:50   0.00   86.9    22    1.8   109     3.3   871.0    0.00 
 212   21:00   0.00   85.4    23    0.5    76     1.9   871.0    0.00 
 212   21:10   0.00   83.6    24    1.8   302     3.5   871.0    0.00 
 212   21:20   0.00   83.1    24    3.0   288     3.8   871.0    0.00 
 212   21:30   0.00   83.1    25    2.4   315     4.0   870.9    0.00 
 212   21:40   0.00   84.3    24    1.9   305     2.9   870.9    0.00 
 212   21:50   0.00   83.6    24    1.9   291     2.8   870.9    0.00 
 212   22:00   0.00   83.9    24    2.9   254     8.0   870.9    0.00 
 212   22:10   0.00   85.6    23    3.3   279     6.6   870.9    0.00 
 212   22:20   0.00   86.3    21    6.4   273    11.2   870.9    0.00 
 212   22:30   0.00   86.8    21    4.5   276    10.4   870.9    0.00 
 212   22:40   0.00   86.1    21   11.5   310    17.5   871.0    0.00 
 212   22:50   0.00   85.9    21   13.3   314    18.1   870.9    0.00 
 212   23:00   0.00   86.0    21   13.0   323    18.3   871.0    0.00 
 212   23:10   0.00   85.8    21   13.6   318    17.5   870.9    0.00 
 212   23:20   0.00   85.6    22   12.8   320    18.0   870.9    0.00 
 212   23:30   0.00   85.4    22   12.7   324    22.8   870.9    0.00 
 212   23:40   0.00   85.1    23   10.5   318    15.8   870.9    0.00 
 212   23:50   0.00   84.8    23   10.5   327    16.0   871.0    0.00 
 213    0:00   0.00   84.1    24   11.9   335    16.9   871.0    0.00 
 213    0:10   0.00   83.5    24   12.1   332    17.4   870.9    0.00 
 213    0:20   0.00   83.2    25   12.7   322    17.2   870.9    0.00 
 213    0:30   0.00   82.8    25   13.7   317    17.5   870.8    0.00 
 213    0:40   0.00   82.9    25   14.2   317    19.4   870.8    0.00 
 213    0:50   0.00   83.2    24   13.9   318    18.4   870.7    0.00 
 213    1:00   0.00   83.2    24   15.4   318    20.7   870.7    0.00 
 213    1:10   0.00   83.3    23   12.8   323    18.7   870.8    0.00 
 213    1:20   0.00   83.5    23   13.9   317    20.0   870.7    0.00 
 213    1:30   0.00   83.4    23   12.5   321    18.1   870.7    0.00 
 213    1:40   0.00   83.4    22   14.7   315    19.2   870.7    0.00 
 213    1:50   0.00   83.3    22   15.4   315    21.9   870.6    0.00 
 213    2:00   0.00   83.3    22   16.4   308    22.2   870.5    0.00 
 213    2:10   0.00   83.2    22   14.2   309    21.5   870.5    0.00 
 213    2:20   0.00   83.0    22   11.0   308    17.8   870.7    0.00 
 213    2:30   0.00   82.4    23   10.4   273    14.2   870.9    0.00 
 213    2:40   0.00   82.3    23    9.3   296    14.7   871.0    0.00 
 213    2:50   0.00   82.3    23    7.9   316    12.3   871.1    0.00 
 213    3:00   0.00   81.5    23    7.1   282    10.4   871.1    0.00 
 213    3:10   0.00   81.5    23    6.5   276     9.1   871.0    0.00 
 213    3:20   0.00   80.6    24    4.9   282     6.1   871.0    0.00 
 213    3:30   0.00   80.4    24    5.6   270     7.5   871.0    0.00 
 213    3:40   0.00   81.0    24    6.2   270     8.6   871.2    0.00 
 213    3:50   0.00   80.2    25    4.2   277     6.3   871.3    0.00 
 213    4:00   0.00   80.0    25    3.9   262     6.4   871.3    0.00 
 213    4:10   0.00   80.3    26    3.3   210     6.5   871.5    0.00 
 213    4:20   0.00   78.6    28    3.9   288     5.9   871.6    0.00 
 213    4:30   0.00   76.6    30    3.3   280     5.0   871.6    0.00 
 213    4:40   0.00   77.7    29    1.6   182     3.5   871.7    0.00 
 213    4:50   0.00   77.8    30    1.2    90     2.9   871.7    0.00 
 213    5:00   0.00   76.6    32    1.4   292     2.9   871.7    0.00 
 213    5:10   0.00   76.2    32    1.3   262     3.2   871.7    0.00 
 213    5:20   0.00   76.5    34    2.2   110     4.7   871.8    0.00 
 213    5:30   0.01   76.3    35    2.3   138     4.7   871.8    0.00 
 213    5:40   0.02   76.6    37    2.0   108     3.5   871.9    0.00 
 213    5:50   0.03   76.7    38    3.1   102     4.2   872.1    0.00 
 213    6:00   0.07   77.8    37    1.6    96     4.5   872.1    0.00 
 213    6:10   0.07   77.4    39    4.0   102     6.2   872.3    0.00 
 213    6:20   0.15   78.6    38    1.3   353     3.8   872.4    0.00 
 213    6:30   0.16   80.2    36    2.5   245     5.6   872.4    0.00 
 213    6:40   0.24   80.2    36    2.5   328     4.7   872.4    0.00 
 213    6:50   0.29   82.0    34    1.6   240     4.0   872.6    0.00 
 213    7:00   0.31   82.1    34    2.4   218     4.2   872.7    0.00 
 213    7:10   0.40   82.3    34    2.3   210     4.1   872.8    0.00 
 213    7:20   0.43   83.5    33    4.0   135     8.7   872.9    0.00 
 213    7:30   0.42   81.3    35    5.8   125    10.7   872.9    0.00 
 213    7:40   0.42   80.8    36    6.1   121     9.8   873.0    0.00 
 213    7:50   0.49   81.7    35    4.3   123     9.1   873.1    0.00 
 213    8:00   0.52   82.0    34    5.2   106    11.3   873.1    0.00 
 213    8:10   0.56   82.8    32    2.6   165     8.8   873.1    0.00 
 213    8:20   0.60   85.0    29    3.6   160     8.7   873.1    0.00 
 213    8:30   0.63   83.6    31    5.2   152    11.9   873.1    0.00 
 213    8:40   0.66   83.9    31    4.1   189    10.3   873.1    0.00 
 213    8:50   0.69   85.4    29    4.5   130    11.4   873.2    0.00 
 213    9:00   0.72   84.8    30    4.4   160     9.7   873.2    0.00 
 213    9:10   0.74   84.3    30    6.6    99    14.5   873.2    0.00 
 213    9:20   0.77   84.3    30    5.2   138    10.9   873.3    0.00 
 213    9:30   0.80   85.7    29    3.9   221     9.8   873.3    0.00 
 213    9:40   0.82   85.3    29    4.8   205    13.4   873.2    0.00 
 213    9:50   0.84   85.4    28    5.4   114    11.6   873.3    0.00 
 213   10:00   0.86   86.5    28    5.9   112    15.2   873.3    0.00 
 213   10:10   0.88   85.9    30    6.0   113    11.8   873.3    0.00 
 213   10:20   0.89   86.5    28    5.0   127    14.2   873.4    0.00 
 213   10:30   0.90   86.7    29    7.9   119    20.2   873.3    0.00 
 213   10:40   0.92   86.8    29    8.9   125    14.9   873.3    0.00 
 213   10:50   0.93   86.6    29   10.7   126    20.9   873.2    0.00 
 213   11:00   0.94   87.7    28    5.5   156    18.0   873.2    0.00 
 213   11:10   0.95   87.9    27    5.3   159    13.9   873.1    0.00 
 213   11:20   0.96   87.2    28    8.8   120    18.6   873.1    0.00 
 213   11:30   0.96   88.1    27    4.9   156    11.9   873.0    0.00 
 213   11:40   0.96   88.7    27    4.5   141    12.3   872.9    0.00 
 213   11:50   0.97   88.0    27    6.1    96    15.3   872.9    0.00 
 213   12:00   0.96   87.6    29   12.0   120    19.0   872.8    0.00 
 213   12:10   0.96   88.6    28    9.2   115    18.9   872.8    0.00 
 213   12:20   0.96   88.6    28    6.9   204    14.7   872.7    0.00 
 213   12:30   0.94   88.3    28    4.7   156    13.2   872.6    0.00 
 213   12:40   0.94   88.7    27    5.9   188    18.4   872.4    0.00 
 213   12:50   0.94   89.2    27    7.3   128    16.9   872.4    0.00 
 213   13:00   0.94   89.6    26    8.5   116    16.6   872.3    0.00 
 213   13:10   0.93   89.0    27    7.3   119    16.5   872.2    0.00 
 213   13:20   0.93   90.0    26    5.1   113    12.9   872.0    0.00 
 213   13:30   0.91   90.2    26    4.1   138    13.7   871.9    0.00 
 213   13:40   0.90   90.6    25    4.0    32     9.3   871.8    0.00 
 213   13:50   0.88   90.6    25    5.2   172    13.6   871.6    0.00 
 213   14:00   0.84   91.1    25    6.9   198    15.9   871.4    0.00 

Return to Sweeney Granite Mountains graphs page.


Western Regional Climate Center,wrcc@dri.edu